Time;durP1;ratioP1;P1;durP2;ratioP2;P2;SDS_P1;SDS_P2;PMS_P1;PMS_P2;Temp;Humidity;BMP_temperature;BMP_pressure;BME280_temperature;BME280_humidity;BME280_pressure;Samples;Min_cycle;Max_cycle;Signal;HPM_P1;HPM_P2
2021/06/21 00:00:48;;;;;;;26.63;13.43;;;;;;;;;;4992047;28;20022;-69
2021/06/21 00:03:14;;;;;;;25.15;13.32;;;;;;;;;;4989686;28;20068;-70
2021/06/21 00:05:40;;;;;;;32.47;13.98;;;;;;;;;;4988467;28;20036;-70
2021/06/21 00:08:07;;;;;;;27.50;12.05;;;;;;;;;;4987526;28;20542;-73
2021/06/21 00:10:33;;;;;;;34.40;14.55;;;;;;;;;;4988752;28;20113;-70
2021/06/21 00:12:59;;;;;;;25.92;13.95;;;;;;;;;;4991527;28;20026;-70
2021/06/21 00:15:25;;;;;;;28.00;13.95;;;;;;;;;;4988496;28;20030;-72
2021/06/21 00:17:52;;;;;;;26.95;13.23;;;;;;;;;;4986554;28;20050;-71
2021/06/21 00:20:19;;;;;;;28.95;13.70;;;;;;;;;;4985842;28;20029;-70
2021/06/21 00:22:45;;;;;;;25.88;13.63;;;;;;;;;;4989270;28;20038;-69
2021/06/21 00:25:12;;;;;;;25.33;13.35;;;;;;;;;;4988200;28;20045;-71
2021/06/21 00:27:39;;;;;;;20.92;12.88;;;;;;;;;;4986323;28;20081;-71
2021/06/21 00:30:06;;;;;;;34.60;15.25;;;;;;;;;;4986878;28;20038;-71
2021/06/21 00:32:32;;;;;;;27.52;13.48;;;;;;;;;;4989661;28;20421;-73
2021/06/21 00:34:58;;;;;;;24.85;13.88;;;;;;;;;;4990224;28;20041;-72
2021/06/21 00:37:24;;;;;;;32.70;14.38;;;;;;;;;;4984692;28;20095;-70
2021/06/21 00:39:50;;;;;;;30.70;13.95;;;;;;;;;;4979455;28;20037;-72
2021/06/21 00:42:16;;;;;;;24.58;13.98;;;;;;;;;;4985271;28;20072;-76
2021/06/21 00:44:42;;;;;;;23.85;12.30;;;;;;;;;;4992812;28;20042;-75
2021/06/21 00:47:13;;;;;;;21.10;12.48;;;;;;;;;;4987941;28;20019;-75
2021/06/21 00:49:39;;;;;;;23.95;11.88;;;;;;;;;;4985776;28;20121;-73
2021/06/21 00:52:05;;;;;;;23.52;12.57;;;;;;;;;;4987551;28;20037;-68
2021/06/21 00:54:32;;;;;;;19.33;12.50;;;;;;;;;;4987811;28;20168;-72
2021/06/21 00:56:58;;;;;;;27.60;12.50;;;;;;;;;;4988123;28;20014;-71
2021/06/21 00:59:24;;;;;;;24.88;13.73;;;;;;;;;;4986541;28;20664;-72
2021/06/21 01:01:50;;;;;;;24.00;12.88;;;;;;;;;;4987885;28;20034;-71
2021/06/21 01:04:16;;;;;;;24.02;12.43;;;;;;;;;;4988560;28;20223;-71
2021/06/21 01:06:42;;;;;;;20.80;11.15;;;;;;;;;;4988824;28;20269;-72
2021/06/21 01:09:08;;;;;;;28.80;13.20;;;;;;;;;;4986776;28;20201;-70
2021/06/21 01:11:39;;;;;;;24.67;12.82;;;;;;;;;;4989286;28;20034;-70
2021/06/21 01:14:07;;;;;;;23.63;12.15;;;;;;;;;;4987322;28;20034;-71
2021/06/21 01:16:51;;;;;;;31.05;15.13;;;;;;;;;;4988018;28;20053;-70
2021/06/21 01:19:23;;;;;;;21.42;11.73;;;;;;;;;;4984530;28;20019;-68
2021/06/21 01:21:49;;;;;;;;;;;;;;;;;;4988187;28;20061;-70
2021/06/21 01:24:31;;;;;;;28.73;14.27;;;;;;;;;;4987530;28;19976;-70
2021/06/21 01:26:57;;;;;;;;;;;;;;;;;;4988010;28;20109;-69
2021/06/21 01:29:41;;;;;;;35.97;16.83;;;;;;;;;;4986583;28;20494;-75
2021/06/21 01:32:16;;;;;;;29.27;15.75;;;;;;;;;;4988120;28;20029;-71
2021/06/21 01:34:44;;;;;;;27.92;16.48;;;;;;;;;;4987784;28;20073;-74
2021/06/21 01:37:12;;;;;;;29.92;17.00;;;;;;;;;;4988588;28;20411;-72
2021/06/21 01:39:38;;;;;;;27.88;16.05;;;;;;;;;;4989175;28;20026;-72
2021/06/21 01:42:09;;;;;;;30.98;15.57;;;;;;;;;;4986562;28;20500;-71
2021/06/21 01:44:39;;;;;;;25.87;16.00;;;;;;;;;;4988179;28;20508;-70
2021/06/21 01:47:06;;;;;;;31.40;17.08;;;;;;;;;;4985718;28;20273;-72
2021/06/21 01:49:34;;;;;;;25.35;15.60;;;;;;;;;;4987415;28;20153;-71
2021/06/21 01:52:03;;;;;;;24.95;14.50;;;;;;;;;;4990470;28;20022;-71
2021/06/21 01:54:30;;;;;;;27.48;16.83;;;;;;;;;;4991407;28;20022;-73
2021/06/21 01:56:58;;;;;;;27.75;16.58;;;;;;;;;;4990020;28;20034;-72
2021/06/21 01:59:25;;;;;;;27.58;16.00;;;;;;;;;;4988931;28;20034;-75
2021/06/21 02:01:52;;;;;;;26.33;16.42;;;;;;;;;;4990073;28;20034;-72
2021/06/21 02:04:18;;;;;;;29.17;16.40;;;;;;;;;;4990666;28;20031;-68
2021/06/21 02:06:46;;;;;;;28.67;19.20;;;;;;;;;;4989324;28;20099;-72
2021/06/21 02:09:13;;;;;;;30.77;18.08;;;;;;;;;;4989767;28;20519;-75
2021/06/21 02:11:39;;;;;;;28.63;15.25;;;;;;;;;;4992183;28;20426;-72
2021/06/21 02:14:05;;;;;;;31.50;14.95;;;;;;;;;;4990856;28;20068;-71
2021/06/21 02:16:32;;;;;;;24.77;15.35;;;;;;;;;;4991102;28;20037;-72
2021/06/21 02:18:58;;;;;;;26.10;14.05;;;;;;;;;;4986890;28;20022;-71
2021/06/21 02:21:25;;;;;;;24.60;13.15;;;;;;;;;;4992539;28;20518;-71
2021/06/21 02:23:52;;;;;;;25.48;13.70;;;;;;;;;;4990621;28;20092;-78
2021/06/21 02:26:23;;;;;;;27.67;14.55;;;;;;;;;;4990088;28;20426;-75
2021/06/21 02:28:49;;;;;;;23.75;14.07;;;;;;;;;;4988766;28;20053;-74
2021/06/21 02:31:16;;;;;;;32.60;15.43;;;;;;;;;;4993500;28;20168;-71
2021/06/21 02:33:42;;;;;;;31.77;16.33;;;;;;;;;;4989475;28;20023;-70
2021/06/21 02:36:08;;;;;;;31.40;16.25;;;;;;;;;;4991262;28;20034;-73
2021/06/21 02:38:34;;;;;;;32.72;15.48;;;;;;;;;;4988849;28;20041;-69
2021/06/21 02:41:00;;;;;;;25.65;13.68;;;;;;;;;;4989966;28;20042;-71
2021/06/21 02:43:26;;;;;;;29.17;16.10;;;;;;;;;;4990790;28;20756;-73
2021/06/21 02:45:52;;;;;;;33.55;15.68;;;;;;;;;;4989945;28;20045;-71
2021/06/21 02:48:19;;;;;;;23.63;14.05;;;;;;;;;;4988441;28;20500;-70
2021/06/21 02:50:48;;;;;;;27.35;16.77;;;;;;;;;;4990256;28;20187;-70
2021/06/21 02:53:33;;;;;;;32.17;16.98;;;;;;;;;;4990113;28;20030;-71
2021/06/21 02:56:08;;;;;;;28.65;17.05;;;;;;;;;;4989556;28;20022;-69
2021/06/21 02:58:36;;;;;;;26.23;15.23;;;;;;;;;;4986188;28;20050;-70
2021/06/21 03:01:05;;;;;;;26.63;14.60;;;;;;;;;;4989943;28;20072;-73
2021/06/21 03:03:32;;;;;;;24.00;14.52;;;;;;;;;;4989339;28;20027;-70
2021/06/21 03:05:59;;;;;;;24.33;14.20;;;;;;;;;;4988388;28;20457;-72
2021/06/21 03:08:26;;;;;;;23.92;14.88;;;;;;;;;;4988513;28;20026;-70
2021/06/21 03:10:52;;;;;;;24.77;15.05;;;;;;;;;;4992756;28;20042;-70
2021/06/21 03:13:20;;;;;;;24.88;14.48;;;;;;;;;;5003715;28;20054;-70
2021/06/21 03:15:46;;;;;;;21.13;13.10;;;;;;;;;;4989392;28;20022;-72
2021/06/21 03:18:13;;;;;;;24.85;11.68;;;;;;;;;;4987009;28;20026;-71
2021/06/21 03:20:39;;;;;;;21.30;12.52;;;;;;;;;;4987859;28;20023;-71
2021/06/21 03:23:05;;;;;;;27.50;11.48;;;;;;;;;;4989308;28;20540;-71
2021/06/21 03:25:32;;;;;;;17.40;11.75;;;;;;;;;;4988724;28;20087;-71
2021/06/21 03:28:06;;;;;;;18.63;12.23;;;;;;;;;;4986090;28;20038;-70
2021/06/21 03:30:32;;;;;;;25.10;12.25;;;;;;;;;;4988510;28;20022;-69
2021/06/21 03:32:58;;;;;;;22.65;12.40;;;;;;;;;;4989556;28;20027;-70
2021/06/21 03:35:26;;;;;;;20.02;11.35;;;;;;;;;;4989013;28;20096;-72
2021/06/21 03:37:52;;;;;;;23.58;12.05;;;;;;;;;;4983614;28;20031;-72
2021/06/21 03:40:18;;;;;;;22.73;10.93;;;;;;;;;;4985206;28;20060;-72
2021/06/21 03:42:44;;;;;;;19.63;10.82;;;;;;;;;;4988052;28;20041;-72
2021/06/21 03:45:11;;;;;;;22.30;10.40;;;;;;;;;;4984727;28;20037;-68
2021/06/21 03:47:38;;;;;;;18.80;11.13;;;;;;;;;;4986785;28;20030;-71
2021/06/21 03:50:05;;;;;;;21.17;11.25;;;;;;;;;;4986780;28;20063;-68
2021/06/21 03:52:31;;;;;;;23.88;11.43;;;;;;;;;;4984717;28;20035;-69
2021/06/21 03:55:06;;;;;;;22.50;10.98;;;;;;;;;;5002861;28;20038;-71
2021/06/21 03:57:36;;;;;;;23.20;11.68;;;;;;;;;;4990238;28;20428;-69
2021/06/21 04:00:04;;;;;;;25.20;12.50;;;;;;;;;;4984090;28;20021;-68
2021/06/21 04:02:30;;;;;;;25.67;14.43;;;;;;;;;;4987353;28;20043;-68
2021/06/21 04:04:56;;;;;;;21.88;11.13;;;;;;;;;;4989238;28;20023;-68
2021/06/21 04:07:22;;;;;;;22.70;12.80;;;;;;;;;;4987912;28;20075;-68
2021/06/21 04:09:49;;;;;;;25.70;14.32;;;;;;;;;;4988004;28;20079;-68
2021/06/21 04:12:16;;;;;;;25.02;13.50;;;;;;;;;;4988861;28;20033;-70
2021/06/21 04:14:42;;;;;;;29.63;16.63;;;;;;;;;;4990042;28;20030;-70
2021/06/21 04:17:08;;;;;;;26.15;14.85;;;;;;;;;;4990771;28;20110;-70
2021/06/21 04:19:35;;;;;;;24.73;15.05;;;;;;;;;;4986644;28;20132;-69
2021/06/21 04:22:01;;;;;;;31.85;15.40;;;;;;;;;;4987696;28;20034;-69
2021/06/21 04:24:27;;;;;;;27.38;16.40;;;;;;;;;;4987196;28;20050;-70
2021/06/21 04:26:53;;;;;;;30.80;18.02;;;;;;;;;;4988675;28;20031;-70
2021/06/21 04:29:19;;;;;;;29.17;20.02;;;;;;;;;;4986407;28;20022;-70
2021/06/21 04:31:45;;;;;;;28.20;20.95;;;;;;;;;;4986645;28;20033;-69
2021/06/21 04:34:11;;;;;;;29.13;19.38;;;;;;;;;;4985725;28;20030;-68
2021/06/21 04:36:37;;;;;;;32.97;19.80;;;;;;;;;;4986465;28;20026;-69
2021/06/21 04:39:03;;;;;;;31.05;20.92;;;;;;;;;;4983172;28;20031;-71
2021/06/21 04:41:30;;;;;;;24.85;16.42;;;;;;;;;;4986474;28;20034;-69
2021/06/21 04:43:56;;;;;;;26.33;17.60;;;;;;;;;;4987644;28;20030;-68
2021/06/21 04:46:23;;;;;;;26.05;19.30;;;;;;;;;;4987091;28;20519;-66
2021/06/21 04:48:50;;;;;;;29.38;17.60;;;;;;;;;;4983684;28;20025;-69
2021/06/21 04:51:20;;;;;;;29.85;18.58;;;;;;;;;;4976855;28;20030;-68
2021/06/21 04:53:49;;;;;;;28.23;18.75;;;;;;;;;;4977998;28;20541;-67
2021/06/21 04:56:16;;;;;;;31.83;17.77;;;;;;;;;;4982660;28;20061;-68
2021/06/21 04:58:42;;;;;;;20.85;13.85;;;;;;;;;;4975918;28;20034;-67
2021/06/21 05:01:08;;;;;;;22.10;14.05;;;;;;;;;;4978540;28;20042;-67
2021/06/21 05:03:38;;;;;;;22.45;14.13;;;;;;;;;;5019799;28;20133;-68
2021/06/21 05:06:07;;;;;;;19.30;12.35;;;;;;;;;;4991812;28;20160;-67
2021/06/21 05:08:34;;;;;;;16.48;10.88;;;;;;;;;;4982773;28;20027;-67
2021/06/21 05:11:00;;;;;;;20.52;10.05;;;;;;;;;;4982941;28;20033;-65
2021/06/21 05:13:26;;;;;;;17.75;10.93;;;;;;;;;;4976477;28;20027;-69
2021/06/21 05:15:52;;;;;;;18.05;10.77;;;;;;;;;;4997344;28;20029;-66
2021/06/21 05:18:18;;;;;;;22.10;10.77;;;;;;;;;;4981004;28;20557;-68
2021/06/21 05:20:44;;;;;;;16.83;9.45;;;;;;;;;;4997066;28;20515;-66
2021/06/21 05:23:10;;;;;;;17.42;9.77;;;;;;;;;;4985770;28;20100;-67
2021/06/21 05:25:37;;;;;;;20.65;10.00;;;;;;;;;;4986765;28;20038;-67
2021/06/21 05:28:03;;;;;;;20.02;9.52;;;;;;;;;;4983407;28;20190;-66
2021/06/21 05:30:29;;;;;;;18.92;9.70;;;;;;;;;;4977227;28;20079;-67
2021/06/21 05:32:56;;;;;;;20.20;9.25;;;;;;;;;;4984825;28;20038;-66
2021/06/21 05:35:22;;;;;;;21.40;10.10;;;;;;;;;;4993877;28;20047;-66
2021/06/21 05:37:48;;;;;;;19.38;9.82;;;;;;;;;;4983943;28;20421;-66
2021/06/21 05:40:16;;;;;;;18.00;9.65;;;;;;;;;;5034589;28;20086;-67
2021/06/21 05:42:42;;;;;;;19.17;9.43;;;;;;;;;;5027150;28;20033;-66
2021/06/21 05:45:08;;;;;;;20.02;10.40;;;;;;;;;;4985764;28;20027;-67
2021/06/21 05:47:34;;;;;;;21.52;10.88;;;;;;;;;;4996738;28;20095;-66
2021/06/21 05:50:00;;;;;;;24.83;11.65;;;;;;;;;;5055744;28;20043;-66
2021/06/21 05:52:27;;;;;;;17.45;11.07;;;;;;;;;;4987570;28;20062;-66
2021/06/21 05:54:59;;;;;;;19.98;13.48;;;;;;;;;;4986095;28;20030;-66
2021/06/21 05:57:25;;;;;;;22.38;13.63;;;;;;;;;;5021556;28;20123;-66
2021/06/21 05:59:51;;;;;;;25.08;14.25;;;;;;;;;;4999796;28;20018;-66
2021/06/21 06:02:18;;;;;;;24.27;14.13;;;;;;;;;;4998274;28;20020;-64
2021/06/21 06:04:44;;;;;;;22.17;13.95;;;;;;;;;;4987684;28;20050;-64
2021/06/21 06:07:10;;;;;;;17.25;11.90;;;;;;;;;;4979980;28;20022;-66
2021/06/21 06:09:37;;;;;;;18.27;11.30;;;;;;;;;;4977534;28;20436;-64
2021/06/21 06:12:03;;;;;;;22.33;11.80;;;;;;;;;;4981826;28;20110;-65
2021/06/21 06:14:29;;;;;;;20.00;9.75;;;;;;;;;;4978664;28;20027;-66
2021/06/21 06:16:55;;;;;;;21.38;11.80;;;;;;;;;;4982407;28;20509;-67
2021/06/21 06:19:22;;;;;;;24.83;12.23;;;;;;;;;;4984404;28;20018;-66
2021/06/21 06:21:48;;;;;;;19.10;10.65;;;;;;;;;;4982637;28;20621;-67
2021/06/21 06:24:14;;;;;;;24.95;12.02;;;;;;;;;;4974678;28;20525;-67
2021/06/21 06:26:43;;;;;;;23.98;12.75;;;;;;;;;;4999682;28;20031;-65
2021/06/21 06:29:09;;;;;;;22.50;9.90;;;;;;;;;;4977895;28;20033;-67
2021/06/21 06:31:35;;;;;;;18.75;9.00;;;;;;;;;;4995650;28;20463;-65
2021/06/21 06:34:02;;;;;;;18.13;11.38;;;;;;;;;;4987054;28;20026;-67
2021/06/21 06:36:28;;;;;;;20.27;13.45;;;;;;;;;;4984130;28;20129;-65
2021/06/21 06:38:54;;;;;;;22.25;15.13;;;;;;;;;;4982078;28;20015;-66
2021/06/21 06:41:20;;;;;;;27.42;14.50;;;;;;;;;;4977928;28;20030;-67
2021/06/21 06:43:46;;;;;;;19.88;13.95;;;;;;;;;;5009801;28;20607;-66
2021/06/21 06:46:12;;;;;;;30.48;14.35;;;;;;;;;;4989662;28;20015;-66
2021/06/21 06:48:38;;;;;;;23.52;14.48;;;;;;;;;;4987394;28;20075;-66
2021/06/21 06:51:04;;;;;;;21.48;19.40;;;;;;;;;;4987862;28;20022;-66
2021/06/21 06:53:40;;;;;;;24.88;21.20;;;;;;;;;;5005534;28;20506;-66
2021/06/21 06:58:51;;;;;;;24.25;18.98;;;;;;;;;;4987546;28;20084;-66
2021/06/21 07:01:17;;;;;;;28.15;20.58;;;;;;;;;;4993552;28;20049;-68
2021/06/21 07:03:43;;;;;;;27.80;22.63;;;;;;;;;;4988536;28;20018;-66
2021/06/21 07:06:12;;;;;;;25.33;22.27;;;;;;;;;;4986575;28;20026;-66
2021/06/21 07:08:38;;;;;;;23.33;21.02;;;;;;;;;;4987937;28;20034;-66
2021/06/21 07:11:04;;;;;;;25.05;21.85;;;;;;;;;;4993538;28;20022;-67
2021/06/21 07:13:30;;;;;;;22.67;19.75;;;;;;;;;;4990370;28;20528;-67
2021/06/21 07:15:56;;;;;;;26.52;23.98;;;;;;;;;;4987924;28;20052;-67
2021/06/21 07:18:22;;;;;;;31.60;22.60;;;;;;;;;;4989291;28;20381;-67
2021/06/21 07:20:48;;;;;;;20.23;18.27;;;;;;;;;;4989140;28;20488;-67
2021/06/21 07:23:15;;;;;;;25.10;22.55;;;;;;;;;;4991755;28;20033;-66
2021/06/21 07:25:41;;;;;;;31.23;23.95;;;;;;;;;;5003013;28;20092;-67
2021/06/21 07:28:07;;;;;;;27.70;19.92;;;;;;;;;;4988318;28;20022;-66
2021/06/21 07:30:34;;;;;;;23.23;19.25;;;;;;;;;;4986383;28;20044;-66
2021/06/21 07:33:00;;;;;;;24.48;19.55;;;;;;;;;;4990685;28;20023;-65
2021/06/21 07:35:26;;;;;;;23.42;20.95;;;;;;;;;;4989341;28;20031;-64
2021/06/21 07:37:52;;;;;;;25.17;22.15;;;;;;;;;;4985849;28;20257;-65
2021/06/21 07:40:18;;;;;;;22.92;20.55;;;;;;;;;;4988397;28;20062;-65
2021/06/21 07:42:44;;;;;;;27.02;15.13;;;;;;;;;;5003872;28;20088;-67
2021/06/21 07:45:10;;;;;;;19.70;16.30;;;;;;;;;;4988438;28;20030;-66
2021/06/21 07:47:37;;;;;;;22.45;17.10;;;;;;;;;;4985074;28;20030;-67
2021/06/21 07:50:03;;;;;;;26.88;19.73;;;;;;;;;;4993936;28;20115;-68
2021/06/21 07:52:29;;;;;;;17.98;13.10;;;;;;;;;;4991576;28;20030;-67
2021/06/21 07:54:59;;;;;;;22.08;15.57;;;;;;;;;;4987189;28;20423;-67
2021/06/21 07:57:25;;;;;;;22.60;17.52;;;;;;;;;;4986920;28;20049;-67
2021/06/21 07:59:51;;;;;;;22.27;20.08;;;;;;;;;;4983045;28;20041;-67
2021/06/21 08:02:17;;;;;;;21.55;16.95;;;;;;;;;;4990234;28;20117;-67
2021/06/21 08:04:47;;;;;;;24.20;17.63;;;;;;;;;;4987905;28;20058;-67
2021/06/21 08:07:13;;;;;;;23.42;14.38;;;;;;;;;;4988833;28;20034;-66
2021/06/21 08:09:39;;;;;;;24.23;12.77;;;;;;;;;;4987806;28;20030;-66
2021/06/21 08:12:05;;;;;;;24.42;14.20;;;;;;;;;;4990552;28;20034;-66
2021/06/21 08:14:31;;;;;;;21.98;13.27;;;;;;;;;;4988321;28;20046;-66
2021/06/21 08:16:57;;;;;;;20.48;13.77;;;;;;;;;;4987757;28;20504;-65
2021/06/21 08:19:23;;;;;;;19.90;13.55;;;;;;;;;;5002399;28;20074;-65
2021/06/21 08:21:49;;;;;;;28.17;19.58;;;;;;;;;;4985751;28;20034;-65
2021/06/21 08:24:15;;;;;;;27.58;14.35;;;;;;;;;;4989474;28;20027;-67
2021/06/21 08:26:41;;;;;;;20.73;13.30;;;;;;;;;;4986606;28;20030;-68
2021/06/21 08:29:08;;;;;;;27.42;16.80;;;;;;;;;;4987117;28;20118;-67
2021/06/21 08:31:34;;;;;;;23.33;11.73;;;;;;;;;;4985035;28;20429;-65
2021/06/21 08:34:00;;;;;;;16.02;11.45;;;;;;;;;;4984950;28;20020;-68
2021/06/21 08:36:26;;;;;;;26.15;15.00;;;;;;;;;;4987095;28;20054;-66
2021/06/21 08:38:52;;;;;;;24.77;11.73;;;;;;;;;;4991221;28;20481;-65
2021/06/21 08:41:20;;;;;;;23.58;13.95;;;;;;;;;;4988085;28;20050;-68
2021/06/21 08:43:47;;;;;;;28.58;17.30;;;;;;;;;;4986803;28;20027;-65
2021/06/21 08:46:14;;;;;;;27.85;19.42;;;;;;;;;;4984249;28;20109;-65
2021/06/21 08:48:42;;;;;;;27.83;21.98;;;;;;;;;;4983866;28;20041;-63
2021/06/21 08:51:08;;;;;;;33.00;25.17;;;;;;;;;;4986787;28;20113;-64
2021/06/21 08:53:34;;;;;;;30.33;22.17;;;;;;;;;;4991848;28;20038;-64
2021/06/21 08:56:00;;;;;;;30.60;19.20;;;;;;;;;;4984288;28;20034;-64
2021/06/21 08:58:26;;;;;;;27.63;18.88;;;;;;;;;;4985544;28;20073;-65
2021/06/21 09:00:52;;;;;;;28.27;20.60;;;;;;;;;;4985899;28;20027;-65
2021/06/21 09:03:18;;;;;;;28.23;20.77;;;;;;;;;;4987754;28;20030;-67
2021/06/21 09:05:45;;;;;;;28.92;21.25;;;;;;;;;;4987630;28;20079;-64
2021/06/21 09:08:11;;;;;;;28.52;23.77;;;;;;;;;;4978296;28;20026;-64
2021/06/21 09:10:38;;;;;;;30.48;22.73;;;;;;;;;;4984312;28;20512;-65
2021/06/21 09:13:14;;;;;;;36.47;25.33;;;;;;;;;;4989223;28;20034;-64
2021/06/21 09:15:43;;;;;;;29.40;23.77;;;;;;;;;;4989155;28;20027;-64
2021/06/21 09:18:29;;;;;;;30.65;21.42;;;;;;;;;;4981140;28;20216;-66
2021/06/21 09:21:14;;;;;;;21.50;17.42;;;;;;;;;;4986278;28;20036;-65
2021/06/21 09:23:40;;;;;;;26.08;17.98;;;;;;;;;;4988093;28;20030;-64
2021/06/21 09:26:19;;;;;;;28.77;20.40;;;;;;;;;;4988318;28;20037;-63
2021/06/21 09:28:46;;;;;;;26.23;20.23;;;;;;;;;;4984813;28;20079;-65
2021/06/21 09:31:12;;;;;;;26.05;19.35;;;;;;;;;;4981953;28;20022;-63
2021/06/21 09:33:38;;;;;;;24.98;19.42;;;;;;;;;;4989238;28;20031;-63
2021/06/21 09:36:04;;;;;;;29.15;22.63;;;;;;;;;;4988228;28;20043;-64
2021/06/21 09:38:30;;;;;;;30.13;24.20;;;;;;;;;;4984764;28;20041;-64
2021/06/21 09:41:00;;;;;;;35.72;23.25;;;;;;;;;;4979465;28;20041;-63
2021/06/21 09:43:32;;;;;;;25.42;20.33;;;;;;;;;;4982469;28;20022;-64
2021/06/21 09:46:10;;;;;;;30.63;22.55;;;;;;;;;;4989233;28;20022;-63
2021/06/21 09:48:38;;;;;;;28.52;22.65;;;;;;;;;;4986060;28;20120;-63
2021/06/21 09:51:17;;;;;;;36.08;24.75;;;;;;;;;;5007123;28;20090;-63
2021/06/21 09:53:53;;;;;;;29.27;23.23;;;;;;;;;;4993799;28;20027;-63
2021/06/21 09:56:32;;;;;;;22.50;14.75;;;;;;;;;;4987175;28;20122;-63
2021/06/21 09:58:58;;;;;;;34.33;16.23;;;;;;;;;;4977427;28;20027;-64
2021/06/21 10:01:30;;;;;;;24.77;13.50;;;;;;;;;;4982728;28;20034;-63
2021/06/21 10:03:56;;;;;;;;;;;;;;;;;;4986600;28;20023;-64
2021/06/21 10:06:22;;;;;;;22.83;13.25;;;;;;;;;;4993769;28;19948;-64
2021/06/21 10:08:48;;;;;;;23.77;14.05;;;;;;;;;;4983614;28;20034;-63
2021/06/21 10:11:30;;;;;;;20.27;11.95;;;;;;;;;;5057987;28;20093;-64
2021/06/21 10:14:00;;;;;;;16.30;9.82;;;;;;;;;;5081485;28;20020;-63
2021/06/21 10:16:27;;;;;;;18.85;12.63;;;;;;;;;;4991565;28;20026;-63
2021/06/21 10:18:54;;;;;;;21.38;11.07;;;;;;;;;;4986680;28;20128;-64
2021/06/21 10:21:21;;;;;;;21.23;9.15;;;;;;;;;;4987764;28;20080;-63
2021/06/21 10:23:48;;;;;;;24.75;9.00;;;;;;;;;;4986411;28;20071;-64
2021/06/21 10:26:14;;;;;;;16.27;8.02;;;;;;;;;;5005236;28;20042;-63
2021/06/21 10:28:40;;;;;;;16.65;8.30;;;;;;;;;;4987452;28;20121;-62
2021/06/21 10:31:06;;;;;;;15.35;8.80;;;;;;;;;;4989949;28;20030;-63
2021/06/21 10:33:34;;;;;;;15.88;6.40;;;;;;;;;;4990467;28;20064;-66
2021/06/21 10:36:01;;;;;;;16.27;6.57;;;;;;;;;;5039032;28;20046;-63
2021/06/21 10:38:27;;;;;;;17.00;7.35;;;;;;;;;;5026040;28;20113;-63
2021/06/21 10:40:54;;;;;;;22.60;7.63;;;;;;;;;;4990613;28;20477;-63
2021/06/21 10:43:39;;;;;;;17.60;8.77;;;;;;;;;;4990801;28;20562;-63
2021/06/21 10:46:14;;;;;;;18.60;6.53;;;;;;;;;;5039514;28;20176;-63
2021/06/21 10:49:00;;;;;;;20.02;7.13;;;;;;;;;;4986761;28;20042;-63
2021/06/21 10:51:34;;;;;;;14.65;5.85;;;;;;;;;;4982689;28;20039;-64
2021/06/21 10:54:01;;;;;;;20.45;7.65;;;;;;;;;;4990686;28;20045;-63
2021/06/21 10:56:43;;;;;;;18.95;7.07;;;;;;;;;;4990186;28;20505;-63
2021/06/21 10:59:17;;;;;;;16.38;6.70;;;;;;;;;;4986226;28;20023;-64
2021/06/21 11:01:47;;;;;;;14.90;6.85;;;;;;;;;;5001681;28;20053;-64
2021/06/21 11:04:45;;;;;;;13.48;7.00;;;;;;;;;;4990617;28;20062;-63
2021/06/21 11:07:17;;;;;;;15.80;7.43;;;;;;;;;;4978531;28;20117;-65
2021/06/21 11:09:44;;;;;;;19.42;8.43;;;;;;;;;;4999353;28;20041;-66
2021/06/21 11:12:22;;;;;;;13.77;7.75;;;;;;;;;;4990273;28;20167;-65
2021/06/21 11:15:01;;;;;;;15.07;6.70;;;;;;;;;;4988963;28;20026;-65
2021/06/21 11:17:29;;;;;;;12.95;6.90;;;;;;;;;;4989194;28;20030;-66
2021/06/21 11:19:55;;;;;;;15.57;6.45;;;;;;;;;;4986761;28;20083;-65
2021/06/21 11:22:39;;;;;;;11.90;5.85;;;;;;;;;;4994170;28;20037;-65
2021/06/21 11:25:19;;;;;;;10.80;5.28;;;;;;;;;;4988699;28;20023;-64
2021/06/21 11:27:45;;;;;;;18.75;5.97;;;;;;;;;;4993866;28;20695;-64
2021/06/21 11:30:31;;;;;;;14.00;5.40;;;;;;;;;;4991587;28;20026;-64
2021/06/21 11:32:57;;;;;;;18.33;6.70;;;;;;;;;;4991730;28;20015;-64
2021/06/21 11:35:42;;;;;;;10.13;5.60;;;;;;;;;;4988198;28;20759;-65
2021/06/21 11:38:40;;;;;;;15.50;6.53;;;;;;;;;;4985802;28;20308;-66
2021/06/21 11:41:15;;;;;;;12.45;6.70;;;;;;;;;;4995286;28;20058;-66
2021/06/21 11:44:01;;;;;;;16.42;6.97;;;;;;;;;;4987221;28;21393;-67
2021/06/21 11:46:46;;;;;;;17.77;7.22;;;;;;;;;;4988285;28;20018;-65
2021/06/21 11:49:17;;;;;;;19.25;5.63;;;;;;;;;;4990309;28;20035;-64
2021/06/21 11:52:00;;;;;;;14.30;6.07;;;;;;;;;;4989661;28;20030;-66
2021/06/21 11:54:27;;;;;;;16.20;6.05;;;;;;;;;;4987698;28;20014;-63
2021/06/21 11:56:54;;;;;;;15.23;5.40;;;;;;;;;;4987154;28;20030;-64
2021/06/21 11:59:41;;;;;;;14.80;6.10;;;;;;;;;;4984154;28;20030;-65
2021/06/21 12:02:11;;;;;;;17.75;5.72;;;;;;;;;;4986254;28;20030;-66
2021/06/21 12:04:38;;;;;;;20.60;5.95;;;;;;;;;;4987993;28;20034;-66
2021/06/21 12:07:05;;;;;;;18.50;5.68;;;;;;;;;;4987887;28;20025;-66
2021/06/21 12:09:31;;;;;;;12.30;5.78;;;;;;;;;;4983211;28;20031;-66
2021/06/21 12:11:57;;;;;;;13.98;5.65;;;;;;;;;;4986871;28;20513;-65
2021/06/21 12:14:26;;;;;;;12.20;4.82;;;;;;;;;;4999929;28;20130;-66
2021/06/21 12:17:04;;;;;;;11.60;5.72;;;;;;;;;;4988069;28;20022;-66
2021/06/21 12:19:30;;;;;;;24.88;7.97;;;;;;;;;;4988003;28;20031;-66
2021/06/21 12:21:56;;;;;;;17.67;6.32;;;;;;;;;;5042822;28;20084;-66
2021/06/21 12:24:32;;;;;;;18.65;6.82;;;;;;;;;;4990823;28;20022;-66
2021/06/21 12:27:06;;;;;;;18.58;5.55;;;;;;;;;;4988915;28;20023;-66
2021/06/21 12:29:37;;;;;;;13.30;5.03;;;;;;;;;;4985588;28;20105;-66
2021/06/21 12:32:07;;;;;;;25.85;6.55;;;;;;;;;;4988253;28;20054;-66
2021/06/21 12:34:39;;;;;;;13.13;5.55;;;;;;;;;;4988883;28;20030;-65
2021/06/21 12:37:16;;;;;;;13.70;5.50;;;;;;;;;;4993547;28;20050;-66
2021/06/21 12:39:42;;;;;;;14.95;5.13;;;;;;;;;;4984970;28;20031;-64
2021/06/21 12:42:09;;;;;;;17.08;5.25;;;;;;;;;;4972109;28;20030;-64
2021/06/21 12:44:36;;;;;;;22.40;6.00;;;;;;;;;;4970784;28;20045;-63
2021/06/21 12:47:13;;;;;;;16.42;5.43;;;;;;;;;;4983759;28;20263;-64
2021/06/21 12:49:39;;;;;;;14.60;3.97;;;;;;;;;;4985105;28;20030;-65
2021/06/21 12:52:05;;;;;;;18.77;4.20;;;;;;;;;;4988363;28;20031;-66
2021/06/21 12:54:34;;;;;;;15.55;4.68;;;;;;;;;;4994233;28;20031;-64
2021/06/21 12:57:00;;;;;;;13.55;4.30;;;;;;;;;;5007048;28;20017;-64
2021/06/21 12:59:27;;;;;;;16.50;4.85;;;;;;;;;;4985440;28;20019;-64
2021/06/21 13:01:54;;;;;;;12.13;4.05;;;;;;;;;;4985571;28;20026;-65
2021/06/21 13:04:20;;;;;;;15.68;4.15;;;;;;;;;;4988587;28;20044;-65
2021/06/21 13:06:47;;;;;;;20.27;4.70;;;;;;;;;;4988139;28;20287;-65
2021/06/21 13:09:15;;;;;;;16.30;3.42;;;;;;;;;;5008386;28;20022;-64
2021/06/21 13:11:59;;;;;;;13.18;3.70;;;;;;;;;;4986636;28;20249;-64
2021/06/21 13:14:30;;;;;;;14.35;3.47;;;;;;;;;;4988621;28;20041;-65
2021/06/21 13:17:09;;;;;;;13.15;4.53;;;;;;;;;;4997315;28;20022;-64
2021/06/21 13:19:42;;;;;;;16.38;6.07;;;;;;;;;;4985789;28;20035;-67
2021/06/21 13:22:11;;;;;;;14.48;6.25;;;;;;;;;;4987972;28;20532;-67
2021/06/21 13:24:39;;;;;;;11.95;6.40;;;;;;;;;;4999355;28;20058;-68
2021/06/21 13:27:21;;;;;;;17.02;6.57;;;;;;;;;;5015893;28;20577;-66
2021/06/21 13:29:47;;;;;;;12.55;7.00;;;;;;;;;;4986164;28;20125;-68
2021/06/21 13:32:30;;;;;;;12.93;7.85;;;;;;;;;;5063289;28;20050;-67
2021/06/21 13:34:58;;;;;;;14.90;6.25;;;;;;;;;;5090782;28;20040;-68
2021/06/21 13:37:29;;;;;;;14.65;9.15;;;;;;;;;;5006717;28;20027;-67
2021/06/21 13:40:00;;;;;;;15.48;7.20;;;;;;;;;;4983844;28;20058;-67
2021/06/21 13:42:33;;;;;;;12.03;7.80;;;;;;;;;;4985081;28;20065;-65
2021/06/21 13:45:01;;;;;;;20.17;8.65;;;;;;;;;;4987210;28;20363;-65
2021/06/21 13:47:38;;;;;;;11.30;9.55;;;;;;;;;;4986004;28;20019;-66
2021/06/21 13:50:07;;;;;;;13.32;6.88;;;;;;;;;;4989708;28;20463;-65
2021/06/21 13:52:58;;;;;;;13.60;7.15;;;;;;;;;;4992814;28;20531;-67
2021/06/21 13:55:41;;;;;;;16.02;8.88;;;;;;;;;;4994115;28;20040;-68
2021/06/21 13:58:07;;;;;;;15.40;10.10;;;;;;;;;;4981652;28;20035;-67
2021/06/21 14:00:43;;;;;;;18.60;11.43;;;;;;;;;;4989863;28;21481;-67
2021/06/21 14:03:29;;;;;;;18.92;10.20;;;;;;;;;;5010497;28;20886;-67
2021/06/21 14:05:57;;;;;;;18.30;12.30;;;;;;;;;;4990723;28;20030;-67
2021/06/21 14:08:23;;;;;;;15.95;8.20;;;;;;;;;;4986721;28;20046;-67
2021/06/21 14:10:49;;;;;;;22.60;12.27;;;;;;;;;;4984933;28;20505;-66
2021/06/21 14:13:15;;;;;;;14.88;13.23;;;;;;;;;;4987449;28;20030;-68
2021/06/21 14:15:44;;;;;;;12.93;11.43;;;;;;;;;;4989816;28;20719;-66
2021/06/21 14:18:11;;;;;;;20.67;12.68;;;;;;;;;;4987627;28;20026;-67
2021/06/21 14:20:38;;;;;;;18.48;10.38;;;;;;;;;;4990648;28;20041;-67
2021/06/21 14:23:04;;;;;;;16.38;9.30;;;;;;;;;;4996219;28;20046;-65
2021/06/21 14:25:30;;;;;;;11.25;7.72;;;;;;;;;;4990785;28;20026;-64
2021/06/21 14:27:56;;;;;;;14.77;10.32;;;;;;;;;;4987846;28;20026;-63
2021/06/21 14:30:23;;;;;;;18.45;14.52;;;;;;;;;;4993777;28;20030;-64
2021/06/21 14:32:49;;;;;;;15.50;8.02;;;;;;;;;;4988714;28;20031;-64